Chautauqua, Ohio
Current Conditions -  °F | °C
As of 2:53 AM on Tuesday 27 Jan 2015 (Local Time) from KMGY Reporting Station
Overcast Overcast  
Wind Chill: 10°   Ceiling: 7000
Heat Index: 17°   Visibility: 10mi
Dew Point: 12°   Wind: 5mph
Humidity: 81%   Direction: 70°ENE
Pressure: 29.92"   Gusts: NA
Location:  39.6178°N, 84.2528°W
Report Text: KMGY 270753Z AUTO 07004KT 10SM OVC070 M08/M11 A2992 RMK AO2 SLP144 T10831111
Loading
Personal Weather Stations






























Interactive Weather Map New forecast layout! Learn more

10-Day Weather Forecast

Advertisements
Track Severe Weather on mobile